Terminal Aerodrome Forecast
Issued by NWS

Home | Current Version | Previous Version | Text Only | Print | Product List | Glossary On
Versions: 1 2 3 4 5 6 7 8 9 10 11 12 13 14 15 16 17
000
FTUS46 KSEW 291700
TAFOLM
TAF
KOLM 291733Z 2918/3018 22006KT P6SM SCT070 OVC200
     FM292100 24006KT P6SM BKN060 OVC100
     FM300600 20004KT P6SM BKN025 OVC050=

USA.gov is the U.S. government's official web portal to all federal, state and local government web resources and services.